createdAt,value
2023-03-10T00:00:04.671Z,98587.40
2023-03-10T00:03:27.030Z,98576.35
2023-03-10T00:06:49.098Z,98586.36
2023-03-10T00:10:12.677Z,98583.61
2023-03-10T00:13:34.988Z,98584.81
2023-03-10T00:16:56.801Z,98586.36
2023-03-10T00:20:18.678Z,98576.34
2023-03-10T00:23:40.656Z,98569.59
2023-03-10T00:27:02.453Z,98562.14
2023-03-10T00:30:24.297Z,98547.27
2023-03-10T00:33:46.853Z,98539.85
2023-03-10T00:37:09.422Z,98534.14
2023-03-10T00:40:31.267Z,98535.16
2023-03-10T00:43:53.106Z,98536.02
2023-03-10T00:47:14.929Z,98537.58
2023-03-10T00:50:39.502Z,98528.42
2023-03-10T00:54:02.774Z,98511.30
2023-03-10T00:57:24.734Z,98507.66
2023-03-10T01:00:46.523Z,98512.85
2023-03-10T01:04:12.501Z,98513.89
2023-03-10T01:07:34.292Z,98509.40
2023-03-10T01:10:56.748Z,98507.14
2023-03-10T01:14:19.153Z,98505.24
2023-03-10T01:17:41.135Z,98500.58
2023-03-10T01:21:03.507Z,98502.63
2023-03-10T01:24:25.502Z,98502.63
2023-03-10T01:27:47.316Z,98491.57
2023-03-10T01:31:09.426Z,98483.98
2023-03-10T01:34:31.248Z,98478.98
2023-03-10T01:37:53.129Z,98471.71
2023-03-10T01:41:16.182Z,98469.11
2023-03-10T01:44:39.429Z,98462.55
2023-03-10T01:48:01.484Z,98462.03
2023-03-10T01:51:24.151Z,98461.86
2023-03-10T01:54:49.922Z,98452.02
2023-03-10T01:58:12.426Z,98450.11
2023-03-10T02:01:35.033Z,98441.46
2023-03-10T02:04:58.057Z,98424.18
2023-03-10T02:08:20.912Z,98418.48
2023-03-10T02:11:43.122Z,98415.20
2023-03-10T02:15:05.503Z,98416.05
2023-03-10T02:18:28.485Z,98407.23
2023-03-10T02:22:17.251Z,98394.96
2023-03-10T02:26:25.372Z,98371.98
2023-03-10T02:29:59.578Z,98372.50
2023-03-10T02:33:28.592Z,98380.61
2023-03-10T02:36:51.241Z,98373.02
2023-03-10T02:40:32.447Z,98354.17
2023-03-10T02:43:56.868Z,98363.84
2023-03-10T02:47:21.670Z,98353.47
2023-03-10T02:50:47.720Z,98339.64
2023-03-10T02:54:10.693Z,98340.52
2023-03-10T02:57:33.291Z,98342.41
2023-03-10T03:00:56.281Z,98338.09
2023-03-10T03:04:18.298Z,98326.52
2023-03-10T03:07:40.966Z,98318.06
2023-03-10T03:11:02.785Z,98323.94
2023-03-10T03:14:24.729Z,98317.38
2023-03-10T03:17:47.498Z,98306.84
2023-03-10T03:21:11.737Z,98294.22
2023-03-10T03:24:33.844Z,98276.09
2023-03-10T03:27:57.635Z,98261.58
2023-03-10T03:31:22.197Z,98253.64
2023-03-10T03:34:45.906Z,98251.59
2023-03-10T03:38:08.740Z,98255.73
2023-03-10T03:41:30.916Z,98251.05
2023-03-10T03:44:53.504Z,98243.96
2023-03-10T03:48:16.005Z,98233.79
2023-03-10T03:51:38.460Z,98225.81
2023-03-10T03:55:00.488Z,98223.08
2023-03-10T03:58:22.502Z,98214.08
2023-03-10T04:01:46.131Z,98207.35
2023-03-10T04:05:11.188Z,98203.02
2023-03-10T04:08:33.306Z,98199.92
2023-03-10T04:11:55.564Z,98193.88
2023-03-10T04:15:18.217Z,98181.44
2023-03-10T04:18:40.003Z,98161.92
2023-03-10T04:22:02.503Z,98160.55
2023-03-10T04:25:25.367Z,98160.73
2023-03-10T04:28:47.442Z,98157.80
2023-03-10T04:32:11.098Z,98161.94
2023-03-10T04:35:35.170Z,98171.08
2023-03-10T04:38:58.534Z,98165.38
2023-03-10T04:42:28.140Z,98164.70
2023-03-10T04:45:52.200Z,98156.76
2023-03-10T04:49:18.131Z,98143.80
2023-03-10T04:52:41.680Z,98132.91
2023-03-10T04:56:06.414Z,98138.45
2023-03-10T04:59:28.687Z,98124.10
2023-03-10T05:02:50.722Z,98110.98
2023-03-10T05:06:20.912Z,98103.54
2023-03-10T05:09:48.505Z,98101.81
2023-03-10T05:13:14.110Z,98094.40
2023-03-10T05:16:36.297Z,98083.36
2023-03-10T05:19:58.529Z,98054.51
2023-03-10T05:23:21.014Z,98042.75
2023-03-10T05:26:43.109Z,98048.10
2023-03-10T05:30:06.693Z,98074.20
2023-03-10T05:33:31.312Z,98076.09
2023-03-10T05:36:54.356Z,98073.66
2023-03-10T05:40:20.392Z,98058.48
2023-03-10T05:43:42.516Z,98050.35
2023-03-10T05:47:06.190Z,98034.28
2023-03-10T05:50:30.700Z,98028.91
2023-03-10T05:53:53.226Z,98030.31
2023-03-10T05:57:18.704Z,98037.39
2023-03-10T06:00:40.829Z,98042.41
2023-03-10T06:04:02.621Z,98045.33
2023-03-10T06:07:27.354Z,98043.61
2023-03-10T06:10:49.645Z,98031.16
2023-03-10T06:14:11.520Z,98024.08
2023-03-10T06:17:33.608Z,98014.57
2023-03-10T06:20:55.694Z,98007.48
2023-03-10T06:24:17.582Z,98002.45
2023-03-10T06:27:41.668Z,98005.90
2023-03-10T06:31:06.654Z,98015.58
2023-03-10T06:34:28.509Z,98019.39
2023-03-10T06:37:50.298Z,98014.88
2023-03-10T06:41:12.586Z,98001.39
2023-03-10T06:44:35.309Z,97992.20
2023-03-10T06:47:57.026Z,97991.34
2023-03-10T06:51:20.767Z,97997.36
2023-03-10T06:54:42.544Z,97997.34
2023-03-10T06:58:04.407Z,97987.45
2023-03-10T07:01:33.397Z,97979.48
2023-03-10T07:04:55.296Z,97968.21
2023-03-10T07:08:17.064Z,97970.42
2023-03-10T07:11:38.797Z,97962.75
2023-03-10T07:15:00.633Z,97960.45
2023-03-10T07:18:22.967Z,97956.27
2023-03-10T07:21:45.472Z,97951.92
2023-03-10T07:25:07.841Z,97934.59
2023-03-10T07:28:31.425Z,97939.73
2023-03-10T07:31:54.543Z,97943.67
2023-03-10T07:35:16.420Z,97948.66
2023-03-10T07:38:38.300Z,97950.67
2023-03-10T07:42:00.124Z,97941.63
2023-03-10T07:45:23.989Z,97936.88
2023-03-10T07:48:45.781Z,97925.85
2023-03-10T07:52:07.538Z,97917.73
2023-03-10T07:55:29.366Z,97917.27
2023-03-10T07:58:51.137Z,97909.54
2023-03-10T08:02:14.555Z,97909.59
2023-03-10T08:05:41.519Z,97891.25
2023-03-10T08:09:03.597Z,97887.42
2023-03-10T08:12:25.587Z,97883.16
2023-03-10T08:15:47.417Z,97879.14
2023-03-10T08:19:09.274Z,97877.91
2023-03-10T08:22:31.045Z,97884.13
2023-03-10T08:25:52.821Z,97886.02
2023-03-10T08:29:18.294Z,97887.37
2023-03-10T08:32:40.486Z,97880.96
2023-03-10T08:36:17.035Z,97878.39
2023-03-10T08:39:39.017Z,97870.64
2023-03-10T08:43:00.996Z,97859.73
2023-03-10T08:46:25.604Z,97863.91
2023-03-10T08:49:50.729Z,97862.66
2023-03-10T08:53:12.723Z,97872.50
2023-03-10T08:56:36.002Z,97867.71
2023-03-10T08:59:58.507Z,97854.47
2023-03-10T09:03:20.819Z,97856.94
2023-03-10T09:06:42.825Z,97847.36
2023-03-10T09:10:05.974Z,97844.37
2023-03-10T09:13:28.015Z,97841.55
2023-03-10T09:16:49.870Z,97842.64
2023-03-10T09:20:12.329Z,97832.52
2023-03-10T09:23:34.388Z,97830.27
2023-03-10T09:26:56.371Z,97828.91
2023-03-10T09:30:18.212Z,97826.14
2023-03-10T09:33:41.463Z,97820.10
2023-03-10T09:37:03.721Z,97819.20
2023-03-10T09:40:25.930Z,97806.09
2023-03-10T09:43:54.384Z,97807.91
2023-03-10T09:47:48.191Z,97816.30
2023-03-10T09:51:22.912Z,97808.40
2023-03-10T09:55:15.852Z,97796.48
2023-03-10T09:59:16.497Z,97798.83
2023-03-10T10:02:45.957Z,97794.45
2023-03-10T10:06:07.551Z,97787.58
2023-03-10T10:09:42.198Z,97782.12
2023-03-10T10:13:16.186Z,97779.67
2023-03-10T10:16:47.492Z,97761.74
2023-03-10T10:20:21.666Z,97750.34
2023-03-10T10:23:52.110Z,97752.42
2023-03-10T10:27:18.332Z,97750.89
2023-03-10T10:30:42.294Z,97745.65
2023-03-10T10:34:07.295Z,97743.70
2023-03-10T10:37:34.231Z,97738.54
2023-03-10T10:41:05.756Z,97738.88
2023-03-10T10:44:28.373Z,97731.55
2023-03-10T10:51:29.739Z,97733.39
2023-03-10T10:54:56.995Z,97727.75
2023-03-10T10:58:32.556Z,97722.29
2023-03-10T11:01:57.589Z,97724.05
2023-03-10T11:05:23.084Z,97714.48
2023-03-10T11:08:51.246Z,97715.56
2023-03-10T11:12:50.346Z,97716.98
2023-03-10T11:16:42.813Z,97712.84
2023-03-10T11:20:14.956Z,97709.21
2023-03-10T11:23:51.517Z,97705.51
2023-03-10T11:27:38.933Z,97694.68
2023-03-10T11:31:21.493Z,97691.84
2023-03-10T11:34:51.912Z,97691.02
2023-03-10T11:38:31.683Z,97692.52
2023-03-10T11:42:26.108Z,97687.17
2023-03-10T11:45:54.491Z,97680.61
2023-03-10T11:49:20.691Z,97678.08
2023-03-10T11:52:43.120Z,97665.85
2023-03-10T11:56:07.424Z,97663.85
2023-03-10T11:59:32.099Z,97656.43
2023-03-10T12:02:56.712Z,97655.08
2023-03-10T12:06:24.300Z,97659.06
2023-03-10T12:09:54.372Z,97658.03
2023-03-10T12:13:27.111Z,97657.52
2023-03-10T12:16:49.325Z,97655.96
2023-03-10T12:20:12.988Z,97653.27
2023-03-10T12:23:44.167Z,97654.60
2023-03-10T12:27:05.927Z,97649.35
2023-03-10T12:30:45.675Z,97645.53
2023-03-10T12:34:23.936Z,97644.20
2023-03-10T12:37:46.111Z,97642.77
2023-03-10T12:41:08.745Z,97646.25
2023-03-10T12:44:33.653Z,97646.08
2023-03-10T12:48:13.314Z,97636.65
2023-03-10T12:51:47.393Z,97630.46
2023-03-10T12:55:18.410Z,97634.67
2023-03-10T12:59:03.454Z,97626.76
2023-03-10T13:02:34.079Z,97621.56
2023-03-10T13:06:03.321Z,97626.40
2023-03-10T13:09:32.232Z,97625.79
2023-03-10T13:13:02.009Z,97628.44
2023-03-10T13:16:23.751Z,97626.73
2023-03-10T13:20:00.297Z,97625.90
2023-03-10T13:23:24.452Z,97623.24
2023-03-10T13:26:46.303Z,97629.51
2023-03-10T13:30:20.268Z,97630.93
2023-03-10T13:33:52.954Z,97636.95
2023-03-10T13:37:15.578Z,97634.02
2023-03-10T13:40:41.813Z,97636.19
2023-03-10T13:44:03.833Z,97633.05
2023-03-10T13:47:27.359Z,97634.02
2023-03-10T13:51:07.477Z,97642.55
2023-03-10T13:54:31.676Z,97647.92
2023-03-10T13:57:54.736Z,97647.36
2023-03-10T14:01:35.381Z,97644.67
2023-03-10T14:05:01.174Z,97646.48
2023-03-10T14:08:28.852Z,97652.88
2023-03-10T14:11:51.283Z,97650.87
2023-03-10T14:15:19.265Z,97650.58
2023-03-10T14:18:42.737Z,97645.30
2023-03-10T14:22:21.662Z,97644.27
2023-03-10T14:25:43.365Z,97651.77
2023-03-10T14:29:20.789Z,97650.80
2023-03-10T14:32:42.464Z,97654.00
2023-03-10T14:36:10.996Z,97648.64
2023-03-10T14:39:34.314Z,97644.55
2023-03-10T14:42:59.872Z,97645.30
2023-03-10T14:46:22.014Z,97642.59
2023-03-10T14:49:44.275Z,97641.79
2023-03-10T14:53:11.046Z,97636.42
2023-03-10T14:56:33.524Z,97637.77
2023-03-10T14:59:55.257Z,97639.43
2023-03-10T15:03:17.494Z,97636.05
2023-03-10T15:06:39.237Z,97632.88
2023-03-10T15:10:12.147Z,97631.67
2023-03-10T15:13:38.160Z,97633.44
2023-03-10T15:17:00.595Z,97634.30
2023-03-10T15:20:25.009Z,97630.38
2023-03-10T15:23:47.132Z,97627.51
2023-03-10T15:27:13.913Z,97625.12
2023-03-10T15:30:36.783Z,97628.31
2023-03-10T15:33:58.521Z,97634.45
2023-03-10T15:37:20.388Z,97626.25
2023-03-10T15:40:45.130Z,97631.04
2023-03-10T15:44:07.936Z,97635.67
2023-03-10T15:47:29.731Z,97629.80
2023-03-10T15:50:51.490Z,97634.98
2023-03-10T15:54:13.433Z,97634.36
2023-03-10T15:57:35.171Z,97629.63
2023-03-10T16:00:56.882Z,97628.95
2023-03-10T16:04:19.372Z,97629.68
2023-03-10T16:07:41.356Z,97630.14
2023-03-10T16:11:06.150Z,97629.73
2023-03-10T16:14:29.180Z,97627.84
2023-03-10T16:17:53.720Z,97625.95
2023-03-10T16:21:17.898Z,97630.66
2023-03-10T16:24:40.403Z,97628.62
2023-03-10T16:28:04.892Z,97637.48
2023-03-10T16:31:27.700Z,97640.46
2023-03-10T16:34:49.562Z,97644.23
2023-03-10T16:38:11.399Z,97642.40
2023-03-10T16:41:33.366Z,97642.30
2023-03-10T16:44:56.628Z,97642.39
2023-03-10T16:48:19.770Z,97639.38
2023-03-10T16:51:43.826Z,97639.83
2023-03-10T16:55:11.499Z,97638.55
2023-03-10T16:58:34.057Z,97637.20
2023-03-10T17:01:55.781Z,97634.77
2023-03-10T17:05:17.667Z,97634.09
2023-03-10T17:08:40.781Z,97631.83
2023-03-10T17:12:02.917Z,97631.08
2023-03-10T17:15:27.187Z,97628.98
2023-03-10T17:18:49.304Z,97626.88
2023-03-10T17:22:11.191Z,97626.17
2023-03-10T17:29:17.446Z,97617.55
2023-03-10T17:32:39.226Z,97611.17
2023-03-10T17:36:09.494Z,97614.69
2023-03-10T17:39:31.593Z,97615.38
2023-03-10T17:42:56.627Z,97614.22
2023-03-10T17:46:31.935Z,97617.19
2023-03-10T17:49:57.030Z,97616.53
2023-03-10T17:53:19.663Z,97616.73
2023-03-10T17:56:41.456Z,97614.84
2023-03-10T18:00:04.072Z,97608.00
2023-03-10T18:03:38.037Z,97605.92
2023-03-10T18:07:00.229Z,97603.05
2023-03-10T18:10:23.548Z,97606.05
2023-03-10T18:13:45.436Z,97607.50
2023-03-10T18:17:12.485Z,97605.49
2023-03-10T18:20:40.737Z,97604.02
2023-03-10T18:24:03.090Z,97603.59
2023-03-10T18:27:24.922Z,97603.70
2023-03-10T18:30:49.248Z,97603.61
2023-03-10T18:34:13.200Z,97602.08
2023-03-10T18:37:35.040Z,97594.86
2023-03-10T18:41:01.346Z,97585.88
2023-03-10T18:44:23.256Z,97581.22
2023-03-10T18:47:46.840Z,97574.55
2023-03-10T18:51:10.314Z,97571.40
2023-03-10T18:58:30.073Z,97553.60
2023-03-10T19:01:52.413Z,97551.44
2023-03-10T19:05:16.253Z,97550.25
2023-03-10T19:08:44.566Z,97549.89
2023-03-10T19:12:35.111Z,97541.20
2023-03-10T19:15:57.291Z,97534.61
2023-03-10T19:19:24.789Z,97539.16
2023-03-10T19:26:39.992Z,97534.54
2023-03-10T19:30:06.186Z,97530.31
2023-03-10T19:33:28.060Z,97530.92
2023-03-10T19:37:13.546Z,97522.52
2023-03-10T19:40:43.510Z,97519.56
2023-03-10T19:44:05.497Z,97515.59
2023-03-10T19:47:30.630Z,97518.86
2023-03-10T19:50:56.681Z,97525.52
2023-03-10T19:54:20.768Z,97519.34
2023-03-10T19:58:06.668Z,97510.71
2023-03-10T20:01:28.988Z,97517.70
2023-03-10T20:04:56.972Z,97512.59
2023-03-10T20:08:19.090Z,97510.37
2023-03-10T20:11:41.543Z,97503.64
2023-03-10T20:15:05.037Z,97495.52
2023-03-10T20:18:26.850Z,97491.88
2023-03-10T20:21:50.652Z,97494.16
2023-03-10T20:25:18.615Z,97499.02
2023-03-10T20:28:40.694Z,97505.46
2023-03-10T20:32:04.477Z,97516.20
2023-03-10T20:35:28.159Z,97520.91
2023-03-10T20:38:50.133Z,97502.19
2023-03-10T20:42:12.843Z,97493.60
2023-03-10T20:45:35.286Z,97487.35
2023-03-10T20:48:57.036Z,97481.36
2023-03-10T20:52:21.368Z,97473.09
2023-03-10T20:55:43.159Z,97468.55
2023-03-10T20:59:05.001Z,97466.14
2023-03-10T21:02:29.207Z,97459.36
2023-03-10T21:05:51.102Z,97456.61
2023-03-10T21:09:13.219Z,97450.96
2023-03-10T21:12:35.192Z,97442.68
2023-03-10T21:15:59.378Z,97440.66
2023-03-10T21:19:21.339Z,97433.62
2023-03-10T21:22:43.300Z,97431.79
2023-03-10T21:26:19.747Z,97433.45
2023-03-10T21:29:42.599Z,97421.37
2023-03-10T21:33:04.624Z,97417.15
2023-03-10T21:36:26.571Z,97405.59
2023-03-10T21:39:48.390Z,97401.88
2023-03-10T21:43:13.211Z,97397.30
2023-03-10T21:46:35.162Z,97387.48
2023-03-10T21:49:57.257Z,97383.44
2023-03-10T21:53:19.222Z,97382.89
2023-03-10T21:56:41.569Z,97375.36
2023-03-10T22:00:04.229Z,97370.81
2023-03-10T22:03:29.486Z,97366.09
2023-03-10T22:06:53.601Z,97358.75
2023-03-10T22:10:16.385Z,97351.27
2023-03-10T22:13:39.194Z,97342.19
2023-03-10T22:17:00.962Z,97342.54
2023-03-10T22:20:25.310Z,97337.65
2023-03-10T22:23:47.024Z,97332.45
2023-03-10T22:27:09.310Z,97327.05
2023-03-10T22:30:31.884Z,97326.52
2023-03-10T22:33:53.568Z,97326.14
2023-03-10T22:37:15.279Z,97318.30
2023-03-10T22:40:36.972Z,97317.63
2023-03-10T22:43:58.855Z,97312.47
2023-03-10T22:47:20.790Z,97313.03
2023-03-10T22:50:46.787Z,97307.31
2023-03-10T22:54:08.594Z,97304.41
2023-03-10T22:57:30.302Z,97308.81
2023-03-10T23:00:51.948Z,97304.77
2023-03-10T23:04:14.017Z,97304.16
2023-03-10T23:07:35.839Z,97307.84
2023-03-10T23:10:57.558Z,97310.11
2023-03-10T23:14:19.317Z,97316.41
2023-03-10T23:17:41.089Z,97316.30
2023-03-10T23:21:03.761Z,97318.20
2023-03-10T23:24:25.655Z,97315.74
2023-03-10T23:27:47.753Z,97312.60
2023-03-10T23:31:15.442Z,97310.66
2023-03-10T23:34:37.869Z,97306.83
2023-03-10T23:38:01.011Z,97302.30
2023-03-10T23:41:22.941Z,97300.31
2023-03-10T23:44:45.158Z,97300.86
2023-03-10T23:48:10.092Z,97301.59
2023-03-10T23:51:31.815Z,97305.11
2023-03-10T23:54:53.990Z,97301.82
2023-03-10T23:58:17.820Z,97301.68
